Terminal Aerodrome Forecast
Issued by NWS Cleveland, OH

Home | Current Version | Previous Version | Graphics & Text | Print | Product List | Glossary Off
Versions: 1 2 3 4 5 6 7 8 9 10 11 12 13 14 15 16 17 18 19 20 21 22 23 24 25 26

747
FTUS41 KCLE 300136 AAB
TAFCLE
TAF AMD
KCLE 300136Z 3002/0106 05010KT P6SM OVC035
     FM300900 12010KT 4SM BR OVC007
     FM301200 17012KT 6SM BR OVC007
     FM301500 19012KT P6SM SCT250
     FM301700 22015G25KT P6SM BKN250
     FM010000 22008KT P6SM OVC100=

USA.gov is the U.S. government's official web portal to all federal, state and local government web resources and services.